sensor_id;sensor_type;location;lat;lon;timestamp;temperature;humidity
11242;DHT22;5678;52.370;9.006;2022-08-21T00:00:37;14.00;99.90
11242;DHT22;5678;52.370;9.006;2022-08-21T00:03:10;14.00;99.90
11242;DHT22;5678;52.370;9.006;2022-08-21T00:05:42;13.90;99.90
11242;DHT22;5678;52.370;9.006;2022-08-21T00:08:12;13.90;99.90
11242;DHT22;5678;52.370;9.006;2022-08-21T00:10:40;13.90;99.90
11242;DHT22;5678;52.370;9.006;2022-08-21T00:13:09;13.80;99.90
11242;DHT22;5678;52.370;9.006;2022-08-21T00:15:38;13.80;99.90
11242;DHT22;5678;52.370;9.006;2022-08-21T00:18:09;13.80;99.90
11242;DHT22;5678;52.370;9.006;2022-08-21T00:20:39;13.90;99.90
11242;DHT22;5678;52.370;9.006;2022-08-21T00:23:07;13.80;99.90
11242;DHT22;5678;52.370;9.006;2022-08-21T00:25:38;13.70;99.90
11242;DHT22;5678;52.370;9.006;2022-08-21T00:28:06;13.70;99.90
11242;DHT22;5678;52.370;9.006;2022-08-21T00:30:34;13.70;99.90
11242;DHT22;5678;52.370;9.006;2022-08-21T00:33:03;13.70;99.90
11242;DHT22;5678;52.370;9.006;2022-08-21T00:35:34;13.70;99.90
11242;DHT22;5678;52.370;9.006;2022-08-21T00:38:02;13.60;99.90
11242;DHT22;5678;52.370;9.006;2022-08-21T00:40:33;13.60;99.90
11242;DHT22;5678;52.370;9.006;2022-08-21T00:43:04;13.50;99.90
11242;DHT22;5678;52.370;9.006;2022-08-21T00:45:33;13.50;99.90
11242;DHT22;5678;52.370;9.006;2022-08-21T00:48:01;13.50;99.90
11242;DHT22;5678;52.370;9.006;2022-08-21T00:50:33;13.50;99.90
11242;DHT22;5678;52.370;9.006;2022-08-21T00:53:03;13.40;99.90
11242;DHT22;5678;52.370;9.006;2022-08-21T00:55:34;13.40;99.90
11242;DHT22;5678;52.370;9.006;2022-08-21T00:58:08;13.40;99.90
11242;DHT22;5678;52.370;9.006;2022-08-21T01:00:40;13.30;99.90
11242;DHT22;5678;52.370;9.006;2022-08-21T01:03:12;13.30;99.90
11242;DHT22;5678;52.370;9.006;2022-08-21T01:05:41;13.30;99.90
11242;DHT22;5678;52.370;9.006;2022-08-21T01:08:10;13.30;99.90
11242;DHT22;5678;52.370;9.006;2022-08-21T01:10:40;13.20;99.90
11242;DHT22;5678;52.370;9.006;2022-08-21T01:13:10;13.20;99.90
11242;DHT22;5678;52.370;9.006;2022-08-21T01:15:44;13.20;99.90
11242;DHT22;5678;52.370;9.006;2022-08-21T01:18:14;13.30;99.90
11242;DHT22;5678;52.370;9.006;2022-08-21T01:20:44;13.10;99.90
11242;DHT22;5678;52.370;9.006;2022-08-21T01:23:17;13.10;99.90
11242;DHT22;5678;52.370;9.006;2022-08-21T01:25:45;13.10;99.90
11242;DHT22;5678;52.370;9.006;2022-08-21T01:28:14;13.00;99.90
11242;DHT22;5678;52.370;9.006;2022-08-21T01:30:43;13.00;99.90
11242;DHT22;5678;52.370;9.006;2022-08-21T01:33:11;12.90;99.90
11242;DHT22;5678;52.370;9.006;2022-08-21T01:35:39;13.00;99.90
11242;DHT22;5678;52.370;9.006;2022-08-21T01:38:07;12.90;99.90
11242;DHT22;5678;52.370;9.006;2022-08-21T01:40:37;12.90;99.90
11242;DHT22;5678;52.370;9.006;2022-08-21T01:43:05;12.90;99.90
11242;DHT22;5678;52.370;9.006;2022-08-21T01:45:33;12.90;99.90
11242;DHT22;5678;52.370;9.006;2022-08-21T01:48:01;12.90;99.90
11242;DHT22;5678;52.370;9.006;2022-08-21T01:50:29;12.90;99.90
11242;DHT22;5678;52.370;9.006;2022-08-21T01:52:58;13.00;99.90
11242;DHT22;5678;52.370;9.006;2022-08-21T01:55:26;13.00;99.90
11242;DHT22;5678;52.370;9.006;2022-08-21T01:57:56;13.00;99.90
11242;DHT22;5678;52.370;9.006;2022-08-21T02:00:25;13.10;99.90
11242;DHT22;5678;52.370;9.006;2022-08-21T02:02:55;13.20;99.90
11242;DHT22;5678;52.370;9.006;2022-08-21T02:05:23;13.20;99.90
11242;DHT22;5678;52.370;9.006;2022-08-21T02:07:52;13.20;99.90
11242;DHT22;5678;52.370;9.006;2022-08-21T02:10:23;13.30;99.90
11242;DHT22;5678;52.370;9.006;2022-08-21T02:12:52;13.30;99.90
11242;DHT22;5678;52.370;9.006;2022-08-21T02:15:22;13.40;99.90
11242;DHT22;5678;52.370;9.006;2022-08-21T02:17:51;13.50;99.90
11242;DHT22;5678;52.370;9.006;2022-08-21T02:20:22;13.50;99.90
11242;DHT22;5678;52.370;9.006;2022-08-21T02:22:50;13.50;99.90
11242;DHT22;5678;52.370;9.006;2022-08-21T02:25:19;13.50;99.90
11242;DHT22;5678;52.370;9.006;2022-08-21T02:27:48;13.60;99.90
11242;DHT22;5678;52.370;9.006;2022-08-21T02:30:19;13.60;99.90
11242;DHT22;5678;52.370;9.006;2022-08-21T02:32:48;13.70;99.90
11242;DHT22;5678;52.370;9.006;2022-08-21T02:35:17;13.70;99.90
11242;DHT22;5678;52.370;9.006;2022-08-21T02:37:49;13.70;99.90
11242;DHT22;5678;52.370;9.006;2022-08-21T02:40:19;13.70;99.90
11242;DHT22;5678;52.370;9.006;2022-08-21T02:42:48;13.70;99.90
11242;DHT22;5678;52.370;9.006;2022-08-21T02:45:17;13.60;99.90
11242;DHT22;5678;52.370;9.006;2022-08-21T02:47:49;13.60;99.90
11242;DHT22;5678;52.370;9.006;2022-08-21T02:50:19;13.60;99.90
11242;DHT22;5678;52.370;9.006;2022-08-21T02:52:48;13.60;99.90
11242;DHT22;5678;52.370;9.006;2022-08-21T02:55:21;13.60;99.90
11242;DHT22;5678;52.370;9.006;2022-08-21T02:57:50;13.80;99.90
11242;DHT22;5678;52.370;9.006;2022-08-21T03:00:18;13.60;99.90
11242;DHT22;5678;52.370;9.006;2022-08-21T03:02:48;13.70;99.90
11242;DHT22;5678;52.370;9.006;2022-08-21T03:05:17;13.70;99.90
11242;DHT22;5678;52.370;9.006;2022-08-21T03:07:46;13.80;99.90
11242;DHT22;5678;52.370;9.006;2022-08-21T03:10:15;13.90;99.90
11242;DHT22;5678;52.370;9.006;2022-08-21T03:12:43;14.30;99.90
11242;DHT22;5678;52.370;9.006;2022-08-21T03:15:14;14.00;99.90
11242;DHT22;5678;52.370;9.006;2022-08-21T03:17:44;14.00;99.90
11242;DHT22;5678;52.370;9.006;2022-08-21T03:20:15;14.10;99.90
11242;DHT22;5678;52.370;9.006;2022-08-21T03:22:44;14.20;99.90
11242;DHT22;5678;52.370;9.006;2022-08-21T03:25:19;14.20;99.90
11242;DHT22;5678;52.370;9.006;2022-08-21T03:28:08;14.20;99.90
11242;DHT22;5678;52.370;9.006;2022-08-21T03:30:40;14.30;99.90
11242;DHT22;5678;52.370;9.006;2022-08-21T03:33:08;14.40;99.90
11242;DHT22;5678;52.370;9.006;2022-08-21T03:35:40;14.40;99.90
11242;DHT22;5678;52.370;9.006;2022-08-21T03:38:09;14.60;99.90
11242;DHT22;5678;52.370;9.006;2022-08-21T03:40:39;14.50;99.90
11242;DHT22;5678;52.370;9.006;2022-08-21T03:43:07;14.50;99.90
11242;DHT22;5678;52.370;9.006;2022-08-21T03:45:37;14.50;99.90
11242;DHT22;5678;52.370;9.006;2022-08-21T03:48:07;14.50;99.90
11242;DHT22;5678;52.370;9.006;2022-08-21T03:50:40;14.40;99.90
11242;DHT22;5678;52.370;9.006;2022-08-21T03:53:10;14.40;99.90
11242;DHT22;5678;52.370;9.006;2022-08-21T03:55:44;14.30;99.90
11242;DHT22;5678;52.370;9.006;2022-08-21T03:58:12;14.30;99.90
11242;DHT22;5678;52.370;9.006;2022-08-21T04:00:42;14.70;99.90
11242;DHT22;5678;52.370;9.006;2022-08-21T04:03:10;14.20;99.90
11242;DHT22;5678;52.370;9.006;2022-08-21T04:05:39;14.20;99.90
11242;DHT22;5678;52.370;9.006;2022-08-21T04:08:07;14.20;99.90
11242;DHT22;5678;52.370;9.006;2022-08-21T04:10:38;14.30;99.90
11242;DHT22;5678;52.370;9.006;2022-08-21T04:13:07;14.10;99.90
11242;DHT22;5678;52.370;9.006;2022-08-21T04:15:35;14.10;99.90
11242;DHT22;5678;52.370;9.006;2022-08-21T04:18:05;14.10;99.90
11242;DHT22;5678;52.370;9.006;2022-08-21T04:20:33;14.10;99.90
11242;DHT22;5678;52.370;9.006;2022-08-21T04:23:03;14.10;99.90
11242;DHT22;5678;52.370;9.006;2022-08-21T04:25:31;14.10;99.90
11242;DHT22;5678;52.370;9.006;2022-08-21T04:27:59;14.20;99.90
11242;DHT22;5678;52.370;9.006;2022-08-21T04:30:28;14.20;99.90
11242;DHT22;5678;52.370;9.006;2022-08-21T04:32:57;14.20;99.90
11242;DHT22;5678;52.370;9.006;2022-08-21T04:35:27;14.30;99.90
11242;DHT22;5678;52.370;9.006;2022-08-21T04:37:55;14.40;99.90
11242;DHT22;5678;52.370;9.006;2022-08-21T04:40:27;14.40;99.90
11242;DHT22;5678;52.370;9.006;2022-08-21T04:42:57;14.40;99.90
11242;DHT22;5678;52.370;9.006;2022-08-21T04:45:28;14.50;99.90
11242;DHT22;5678;52.370;9.006;2022-08-21T04:47:58;14.40;99.90
11242;DHT22;5678;52.370;9.006;2022-08-21T04:50:29;14.50;99.90
11242;DHT22;5678;52.370;9.006;2022-08-21T04:52:58;14.50;99.90
11242;DHT22;5678;52.370;9.006;2022-08-21T04:55:28;14.50;99.90
11242;DHT22;5678;52.370;9.006;2022-08-21T04:57:57;14.50;99.90
11242;DHT22;5678;52.370;9.006;2022-08-21T05:00:25;14.60;99.90
11242;DHT22;5678;52.370;9.006;2022-08-21T05:02:54;14.60;99.90
11242;DHT22;5678;52.370;9.006;2022-08-21T05:05:27;14.70;99.90
11242;DHT22;5678;52.370;9.006;2022-08-21T05:07:57;14.90;99.90
11242;DHT22;5678;52.370;9.006;2022-08-21T05:10:27;15.00;99.90
11242;DHT22;5678;52.370;9.006;2022-08-21T05:12:56;15.10;99.90
11242;DHT22;5678;52.370;9.006;2022-08-21T05:15:24;15.10;99.90
11242;DHT22;5678;52.370;9.006;2022-08-21T05:17:52;15.10;99.90
11242;DHT22;5678;52.370;9.006;2022-08-21T05:20:27;15.20;99.90
11242;DHT22;5678;52.370;9.006;2022-08-21T05:22:55;15.20;99.90
11242;DHT22;5678;52.370;9.006;2022-08-21T05:25:24;15.20;99.90
11242;DHT22;5678;52.370;9.006;2022-08-21T05:27:55;15.30;99.90
11242;DHT22;5678;52.370;9.006;2022-08-21T05:30:26;15.30;99.90
11242;DHT22;5678;52.370;9.006;2022-08-21T05:32:56;15.30;99.90
11242;DHT22;5678;52.370;9.006;2022-08-21T05:35:26;15.30;99.90
11242;DHT22;5678;52.370;9.006;2022-08-21T05:37:55;15.40;99.90
11242;DHT22;5678;52.370;9.006;2022-08-21T05:40:23;15.40;99.90
11242;DHT22;5678;52.370;9.006;2022-08-21T05:42:53;15.50;99.90
11242;DHT22;5678;52.370;9.006;2022-08-21T05:45:24;15.70;99.90
11242;DHT22;5678;52.370;9.006;2022-08-21T05:48:10;15.80;99.90
11242;DHT22;5678;52.370;9.006;2022-08-21T05:50:39;16.00;99.90
11242;DHT22;5678;52.370;9.006;2022-08-21T05:53:07;16.10;99.90
11242;DHT22;5678;52.370;9.006;2022-08-21T05:55:37;16.10;99.90
11242;DHT22;5678;52.370;9.006;2022-08-21T05:58:11;16.60;99.90
11242;DHT22;5678;52.370;9.006;2022-08-21T06:00:41;16.90;99.90
11242;DHT22;5678;52.370;9.006;2022-08-21T06:03:14;17.40;99.90
11242;DHT22;5678;52.370;9.006;2022-08-21T06:05:44;18.10;99.90
11242;DHT22;5678;52.370;9.006;2022-08-21T06:08:13;18.40;99.90
11242;DHT22;5678;52.370;9.006;2022-08-21T06:10:41;18.80;99.90
11242;DHT22;5678;52.370;9.006;2022-08-21T06:13:09;19.20;99.90
11242;DHT22;5678;52.370;9.006;2022-08-21T06:15:40;19.60;99.90
11242;DHT22;5678;52.370;9.006;2022-08-21T06:18:11;20.00;99.90
11242;DHT22;5678;52.370;9.006;2022-08-21T06:20:39;20.30;99.90
11242;DHT22;5678;52.370;9.006;2022-08-21T06:23:07;20.70;99.90
11242;DHT22;5678;52.370;9.006;2022-08-21T06:25:36;21.00;99.90
11242;DHT22;5678;52.370;9.006;2022-08-21T06:28:05;21.40;99.90
11242;DHT22;5678;52.370;9.006;2022-08-21T06:30:35;21.70;99.90
11242;DHT22;5678;52.370;9.006;2022-08-21T06:33:05;22.00;99.90
11242;DHT22;5678;52.370;9.006;2022-08-21T06:35:34;22.20;99.90
11242;DHT22;5678;52.370;9.006;2022-08-21T06:38:07;22.30;99.90
11242;DHT22;5678;52.370;9.006;2022-08-21T06:40:35;22.50;99.90
11242;DHT22;5678;52.370;9.006;2022-08-21T06:43:11;22.70;99.90
11242;DHT22;5678;52.370;9.006;2022-08-21T06:45:41;22.90;99.90
11242;DHT22;5678;52.370;9.006;2022-08-21T06:48:10;23.00;99.90
11242;DHT22;5678;52.370;9.006;2022-08-21T06:50:45;23.20;99.90
11242;DHT22;5678;52.370;9.006;2022-08-21T06:53:14;23.40;99.90
11242;DHT22;5678;52.370;9.006;2022-08-21T06:55:43;23.60;99.90
11242;DHT22;5678;52.370;9.006;2022-08-21T06:58:11;23.70;99.90
11242;DHT22;5678;52.370;9.006;2022-08-21T07:00:42;23.90;99.90
11242;DHT22;5678;52.370;9.006;2022-08-21T07:03:18;24.00;99.90
11242;DHT22;5678;52.370;9.006;2022-08-21T07:05:46;24.20;99.90
11242;DHT22;5678;52.370;9.006;2022-08-21T07:08:14;24.30;99.90
11242;DHT22;5678;52.370;9.006;2022-08-21T07:10:43;24.40;99.90
11242;DHT22;5678;52.370;9.006;2022-08-21T07:13:12;24.50;99.90
11242;DHT22;5678;52.370;9.006;2022-08-21T07:15:40;24.60;99.90
11242;DHT22;5678;52.370;9.006;2022-08-21T07:18:08;24.80;99.90
11242;DHT22;5678;52.370;9.006;2022-08-21T07:20:38;24.80;99.90
11242;DHT22;5678;52.370;9.006;2022-08-21T07:23:08;24.90;99.90
11242;DHT22;5678;52.370;9.006;2022-08-21T07:25:37;25.00;99.90
11242;DHT22;5678;52.370;9.006;2022-08-21T07:28:05;25.20;99.90
11242;DHT22;5678;52.370;9.006;2022-08-21T07:30:33;25.40;99.90
11242;DHT22;5678;52.370;9.006;2022-08-21T07:33:01;25.60;99.90
11242;DHT22;5678;52.370;9.006;2022-08-21T07:35:29;25.80;99.90
11242;DHT22;5678;52.370;9.006;2022-08-21T07:37:59;26.10;99.90
11242;DHT22;5678;52.370;9.006;2022-08-21T07:40:27;26.10;99.90
11242;DHT22;5678;52.370;9.006;2022-08-21T07:42:55;26.10;99.90
11242;DHT22;5678;52.370;9.006;2022-08-21T07:45:23;26.20;99.90
11242;DHT22;5678;52.370;9.006;2022-08-21T07:47:52;26.30;99.90
11242;DHT22;5678;52.370;9.006;2022-08-21T07:50:23;26.30;99.90
11242;DHT22;5678;52.370;9.006;2022-08-21T07:52:52;26.40;99.90
11242;DHT22;5678;52.370;9.006;2022-08-21T07:55:22;26.60;99.90
11242;DHT22;5678;52.370;9.006;2022-08-21T07:57:50;26.70;99.90
11242;DHT22;5678;52.370;9.006;2022-08-21T08:00:21;26.90;99.90
11242;DHT22;5678;52.370;9.006;2022-08-21T08:02:51;26.80;99.90
11242;DHT22;5678;52.370;9.006;2022-08-21T08:05:21;26.90;99.90
11242;DHT22;5678;52.370;9.006;2022-08-21T08:07:49;27.10;99.90
11242;DHT22;5678;52.370;9.006;2022-08-21T08:10:18;27.30;99.90
11242;DHT22;5678;52.370;9.006;2022-08-21T08:12:48;27.40;99.90
11242;DHT22;5678;52.370;9.006;2022-08-21T08:15:20;27.40;99.90
11242;DHT22;5678;52.370;9.006;2022-08-21T08:17:48;27.40;99.90
11242;DHT22;5678;52.370;9.006;2022-08-21T08:20:17;27.30;99.90
11242;DHT22;5678;52.370;9.006;2022-08-21T08:22:47;27.20;99.90
11242;DHT22;5678;52.370;9.006;2022-08-21T08:25:16;27.30;99.90
11242;DHT22;5678;52.370;9.006;2022-08-21T08:27:47;27.40;99.90
11242;DHT22;5678;52.370;9.006;2022-08-21T08:30:17;27.50;99.90
11242;DHT22;5678;52.370;9.006;2022-08-21T08:32:46;27.60;99.90
11242;DHT22;5678;52.370;9.006;2022-08-21T08:35:15;27.70;99.90
11242;DHT22;5678;52.370;9.006;2022-08-21T08:37:44;27.90;99.90
11242;DHT22;5678;52.370;9.006;2022-08-21T08:40:22;28.00;99.90
11242;DHT22;5678;52.370;9.006;2022-08-21T08:42:53;28.20;99.90
11242;DHT22;5678;52.370;9.006;2022-08-21T08:45:22;28.30;99.90
11242;DHT22;5678;52.370;9.006;2022-08-21T08:47:55;28.30;99.90
11242;DHT22;5678;52.370;9.006;2022-08-21T08:50:30;28.30;99.90
11242;DHT22;5678;52.370;9.006;2022-08-21T08:53:05;28.30;99.90
11242;DHT22;5678;52.370;9.006;2022-08-21T08:55:36;28.30;99.90
11242;DHT22;5678;52.370;9.006;2022-08-21T08:58:07;28.60;99.90
11242;DHT22;5678;52.370;9.006;2022-08-21T09:00:38;28.70;99.90
11242;DHT22;5678;52.370;9.006;2022-08-21T09:03:06;28.70;99.90
11242;DHT22;5678;52.370;9.006;2022-08-21T09:05:42;28.60;99.90
11242;DHT22;5678;52.370;9.006;2022-08-21T09:08:23;28.50;99.90
11242;DHT22;5678;52.370;9.006;2022-08-21T09:10:59;28.40;99.90
11242;DHT22;5678;52.370;9.006;2022-08-21T09:13:36;28.70;99.90
11242;DHT22;5678;52.370;9.006;2022-08-21T09:16:13;28.90;99.90
11242;DHT22;5678;52.370;9.006;2022-08-21T09:18:51;28.80;99.90
11242;DHT22;5678;52.370;9.006;2022-08-21T09:21:26;28.80;99.90
11242;DHT22;5678;52.370;9.006;2022-08-21T09:24:00;28.70;99.90
11242;DHT22;5678;52.370;9.006;2022-08-21T09:26:31;28.70;99.90
11242;DHT22;5678;52.370;9.006;2022-08-21T09:29:06;28.70;99.90
11242;DHT22;5678;52.370;9.006;2022-08-21T09:31:35;28.70;99.90
11242;DHT22;5678;52.370;9.006;2022-08-21T09:34:07;29.00;99.90
11242;DHT22;5678;52.370;9.006;2022-08-21T09:36:39;29.00;99.90
11242;DHT22;5678;52.370;9.006;2022-08-21T09:39:09;29.20;99.90
11242;DHT22;5678;52.370;9.006;2022-08-21T09:41:37;29.10;99.90
11242;DHT22;5678;52.370;9.006;2022-08-21T09:44:08;29.20;99.90
11242;DHT22;5678;52.370;9.006;2022-08-21T09:46:36;29.40;99.90
11242;DHT22;5678;52.370;9.006;2022-08-21T09:49:04;29.50;99.90
11242;DHT22;5678;52.370;9.006;2022-08-21T09:51:50;29.80;99.90
11242;DHT22;5678;52.370;9.006;2022-08-21T09:54:26;29.90;99.90
11242;DHT22;5678;52.370;9.006;2022-08-21T09:56:56;30.10;99.90
11242;DHT22;5678;52.370;9.006;2022-08-21T09:59:45;30.30;99.90
11242;DHT22;5678;52.370;9.006;2022-08-21T10:02:26;30.40;99.90
11242;DHT22;5678;52.370;9.006;2022-08-21T10:04:56;30.30;99.90
11242;DHT22;5678;52.370;9.006;2022-08-21T10:07:27;30.00;99.90
11242;DHT22;5678;52.370;9.006;2022-08-21T10:10:00;29.90;99.90
11242;DHT22;5678;52.370;9.006;2022-08-21T10:12:35;30.10;99.90
11242;DHT22;5678;52.370;9.006;2022-08-21T10:15:15;30.00;99.90
11242;DHT22;5678;52.370;9.006;2022-08-21T10:17:54;30.30;99.90
11242;DHT22;5678;52.370;9.006;2022-08-21T10:20:29;30.60;99.90
11242;DHT22;5678;52.370;9.006;2022-08-21T10:23:07;30.70;99.30
11242;DHT22;5678;52.370;9.006;2022-08-21T10:25:44;30.90;99.90
11242;DHT22;5678;52.370;9.006;2022-08-21T10:28:39;31.10;99.90
11242;DHT22;5678;52.370;9.006;2022-08-21T10:31:15;30.90;99.60
11242;DHT22;5678;52.370;9.006;2022-08-21T10:33:52;30.70;99.90
11242;DHT22;5678;52.370;9.006;2022-08-21T10:36:25;30.60;99.60
11242;DHT22;5678;52.370;9.006;2022-08-21T10:39:04;30.50;99.90
11242;DHT22;5678;52.370;9.006;2022-08-21T10:42:14;30.30;99.90
11242;DHT22;5678;52.370;9.006;2022-08-21T10:44:52;29.90;99.90
11242;DHT22;5678;52.370;9.006;2022-08-21T10:47:30;30.00;99.70
11242;DHT22;5678;52.370;9.006;2022-08-21T10:50:06;30.00;98.80
11242;DHT22;5678;52.370;9.006;2022-08-21T10:52:51;29.60;99.50
11242;DHT22;5678;52.370;9.006;2022-08-21T10:55:23;29.30;98.90
11242;DHT22;5678;52.370;9.006;2022-08-21T10:57:58;29.20;99.90
11242;DHT22;5678;52.370;9.006;2022-08-21T11:00:30;29.30;99.90
11242;DHT22;5678;52.370;9.006;2022-08-21T11:03:05;29.30;99.90
11242;DHT22;5678;52.370;9.006;2022-08-21T11:05:40;29.20;99.80
11242;DHT22;5678;52.370;9.006;2022-08-21T11:08:18;29.00;99.50
11242;DHT22;5678;52.370;9.006;2022-08-21T11:10:52;28.90;99.90
11242;DHT22;5678;52.370;9.006;2022-08-21T11:13:29;28.80;99.90
11242;DHT22;5678;52.370;9.006;2022-08-21T11:16:05;28.90;99.90
11242;DHT22;5678;52.370;9.006;2022-08-21T11:18:38;29.00;99.90
11242;DHT22;5678;52.370;9.006;2022-08-21T11:21:19;28.80;99.90
11242;DHT22;5678;52.370;9.006;2022-08-21T11:23:57;28.70;99.40
11242;DHT22;5678;52.370;9.006;2022-08-21T11:26:37;28.80;99.90
11242;DHT22;5678;52.370;9.006;2022-08-21T11:29:12;29.10;99.90
11242;DHT22;5678;52.370;9.006;2022-08-21T11:31:52;29.40;99.90
11242;DHT22;5678;52.370;9.006;2022-08-21T11:34:33;29.80;98.80
11242;DHT22;5678;52.370;9.006;2022-08-21T11:37:17;29.90;99.40
11242;DHT22;5678;52.370;9.006;2022-08-21T11:39:53;30.10;98.20
11242;DHT22;5678;52.370;9.006;2022-08-21T11:42:28;30.30;98.40
11242;DHT22;5678;52.370;9.006;2022-08-21T11:45:13;30.30;98.00
11242;DHT22;5678;52.370;9.006;2022-08-21T11:47:52;30.30;97.80
11242;DHT22;5678;52.370;9.006;2022-08-21T11:50:26;30.10;98.60
11242;DHT22;5678;52.370;9.006;2022-08-21T11:53:05;30.00;97.90
11242;DHT22;5678;52.370;9.006;2022-08-21T11:55:38;30.20;98.40
11242;DHT22;5678;52.370;9.006;2022-08-21T11:58:11;30.50;97.40
11242;DHT22;5678;52.370;9.006;2022-08-21T12:00:43;30.70;97.40
11242;DHT22;5678;52.370;9.006;2022-08-21T12:03:14;31.00;96.90
11242;DHT22;5678;52.370;9.006;2022-08-21T12:05:54;31.10;97.50
11242;DHT22;5678;52.370;9.006;2022-08-21T12:08:31;31.10;96.90
11242;DHT22;5678;52.370;9.006;2022-08-21T12:11:03;31.10;97.10
11242;DHT22;5678;52.370;9.006;2022-08-21T12:13:33;31.20;96.60
11242;DHT22;5678;52.370;9.006;2022-08-21T12:16:10;31.20;95.50
11242;DHT22;5678;52.370;9.006;2022-08-21T12:18:40;30.80;96.10
11242;DHT22;5678;52.370;9.006;2022-08-21T12:21:24;30.50;95.50
11242;DHT22;5678;52.370;9.006;2022-08-21T12:24:05;30.20;96.90
11242;DHT22;5678;52.370;9.006;2022-08-21T12:26:49;30.30;96.80
11242;DHT22;5678;52.370;9.006;2022-08-21T12:29:23;30.10;96.30
11242;DHT22;5678;52.370;9.006;2022-08-21T12:31:56;29.80;96.20
11242;DHT22;5678;52.370;9.006;2022-08-21T12:34:31;29.50;96.70
11242;DHT22;5678;52.370;9.006;2022-08-21T12:37:04;29.50;97.90
11242;DHT22;5678;52.370;9.006;2022-08-21T12:39:36;29.70;96.70
11242;DHT22;5678;52.370;9.006;2022-08-21T12:42:11;29.90;96.30
11242;DHT22;5678;52.370;9.006;2022-08-21T12:44:45;29.80;95.50
11242;DHT22;5678;52.370;9.006;2022-08-21T12:47:21;29.90;97.00
11242;DHT22;5678;52.370;9.006;2022-08-21T12:49:55;30.30;96.90
11242;DHT22;5678;52.370;9.006;2022-08-21T12:52:34;30.50;95.70
11242;DHT22;5678;52.370;9.006;2022-08-21T12:55:06;30.30;96.20
11242;DHT22;5678;52.370;9.006;2022-08-21T12:57:36;29.90;96.20
11242;DHT22;5678;52.370;9.006;2022-08-21T13:00:07;29.60;96.70
11242;DHT22;5678;52.370;9.006;2022-08-21T13:02:41;29.50;97.40
11242;DHT22;5678;52.370;9.006;2022-08-21T13:05:14;29.40;96.80
11242;DHT22;5678;52.370;9.006;2022-08-21T13:07:46;29.50;97.80
11242;DHT22;5678;52.370;9.006;2022-08-21T13:10:21;29.80;96.70
11242;DHT22;5678;52.370;9.006;2022-08-21T13:12:49;29.90;97.00
11242;DHT22;5678;52.370;9.006;2022-08-21T13:15:25;29.90;95.60
11242;DHT22;5678;52.370;9.006;2022-08-21T13:18:00;29.90;96.10
11242;DHT22;5678;52.370;9.006;2022-08-21T13:20:31;29.90;95.90
11242;DHT22;5678;52.370;9.006;2022-08-21T13:23:06;29.90;95.60
11242;DHT22;5678;52.370;9.006;2022-08-21T13:25:36;29.60;95.90
11242;DHT22;5678;52.370;9.006;2022-08-21T13:28:07;29.40;96.70
11242;DHT22;5678;52.370;9.006;2022-08-21T13:30:39;29.20;96.70
11242;DHT22;5678;52.370;9.006;2022-08-21T13:33:10;29.30;97.30
11242;DHT22;5678;52.370;9.006;2022-08-21T13:35:47;29.30;97.30
11242;DHT22;5678;52.370;9.006;2022-08-21T13:38:19;29.40;96.50
11242;DHT22;5678;52.370;9.006;2022-08-21T13:40:55;29.30;96.50
11242;DHT22;5678;52.370;9.006;2022-08-21T13:43:27;29.50;97.00
11242;DHT22;5678;52.370;9.006;2022-08-21T13:45:56;29.50;97.20
11242;DHT22;5678;52.370;9.006;2022-08-21T13:48:28;29.60;97.80
11242;DHT22;5678;52.370;9.006;2022-08-21T13:50:58;29.60;96.60
11242;DHT22;5678;52.370;9.006;2022-08-21T13:53:32;29.50;96.40
11242;DHT22;5678;52.370;9.006;2022-08-21T13:56:03;29.50;96.90
11242;DHT22;5678;52.370;9.006;2022-08-21T13:58:42;29.20;97.00
11242;DHT22;5678;52.370;9.006;2022-08-21T14:01:19;29.20;97.70
11242;DHT22;5678;52.370;9.006;2022-08-21T14:03:52;29.10;97.60
11242;DHT22;5678;52.370;9.006;2022-08-21T14:06:23;29.10;96.90
11242;DHT22;5678;52.370;9.006;2022-08-21T14:08:56;29.10;96.60
11242;DHT22;5678;52.370;9.006;2022-08-21T14:11:26;28.90;96.80
11242;DHT22;5678;52.370;9.006;2022-08-21T14:13:58;28.80;97.30
11242;DHT22;5678;52.370;9.006;2022-08-21T14:16:40;28.90;97.70
11242;DHT22;5678;52.370;9.006;2022-08-21T14:19:11;29.00;97.50
11242;DHT22;5678;52.370;9.006;2022-08-21T14:21:45;28.90;97.10
11242;DHT22;5678;52.370;9.006;2022-08-21T14:24:25;28.90;97.30
11242;DHT22;5678;52.370;9.006;2022-08-21T14:26:56;28.80;97.90
11242;DHT22;5678;52.370;9.006;2022-08-21T14:29:26;28.60;98.20
11242;DHT22;5678;52.370;9.006;2022-08-21T14:32:07;28.50;97.50
11242;DHT22;5678;52.370;9.006;2022-08-21T14:34:51;28.30;97.40
11242;DHT22;5678;52.370;9.006;2022-08-21T14:37:20;28.30;97.50
11242;DHT22;5678;52.370;9.006;2022-08-21T14:39:50;28.20;97.20
11242;DHT22;5678;52.370;9.006;2022-08-21T14:42:18;28.20;97.10
11242;DHT22;5678;52.370;9.006;2022-08-21T14:44:46;28.30;98.10
11242;DHT22;5678;52.370;9.006;2022-08-21T14:47:14;28.50;97.80
11242;DHT22;5678;52.370;9.006;2022-08-21T14:49:42;28.60;97.30
11242;DHT22;5678;52.370;9.006;2022-08-21T14:52:10;28.70;96.60
11242;DHT22;5678;52.370;9.006;2022-08-21T14:54:38;28.70;96.60
11242;DHT22;5678;52.370;9.006;2022-08-21T14:57:09;28.60;96.50
11242;DHT22;5678;52.370;9.006;2022-08-21T14:59:39;28.40;95.90
11242;DHT22;5678;52.370;9.006;2022-08-21T15:02:08;28.20;96.00
11242;DHT22;5678;52.370;9.006;2022-08-21T15:04:36;28.00;96.60
11242;DHT22;5678;52.370;9.006;2022-08-21T15:07:04;27.90;96.70
11242;DHT22;5678;52.370;9.006;2022-08-21T15:09:32;27.80;97.20
11242;DHT22;5678;52.370;9.006;2022-08-21T15:12:01;27.80;97.70
11242;DHT22;5678;52.370;9.006;2022-08-21T15:14:34;27.80;97.80
11242;DHT22;5678;52.370;9.006;2022-08-21T15:17:04;27.90;98.60
11242;DHT22;5678;52.370;9.006;2022-08-21T15:19:33;28.00;97.30
11242;DHT22;5678;52.370;9.006;2022-08-21T15:22:01;28.20;97.70
11242;DHT22;5678;52.370;9.006;2022-08-21T15:24:29;28.20;96.40
11242;DHT22;5678;52.370;9.006;2022-08-21T15:26:59;28.40;97.40
11242;DHT22;5678;52.370;9.006;2022-08-21T15:29:28;28.50;97.00
11242;DHT22;5678;52.370;9.006;2022-08-21T15:32:13;28.50;96.70
11242;DHT22;5678;52.370;9.006;2022-08-21T15:34:42;28.60;95.80
11242;DHT22;5678;52.370;9.006;2022-08-21T15:37:10;28.50;95.70
11242;DHT22;5678;52.370;9.006;2022-08-21T15:39:38;28.30;95.50
11242;DHT22;5678;52.370;9.006;2022-08-21T15:42:07;28.00;96.00
11242;DHT22;5678;52.370;9.006;2022-08-21T15:44:37;27.80;96.30
11242;DHT22;5678;52.370;9.006;2022-08-21T15:47:11;27.60;96.60
11242;DHT22;5678;52.370;9.006;2022-08-21T15:49:39;27.40;97.00
11242;DHT22;5678;52.370;9.006;2022-08-21T15:52:09;27.30;97.20
11242;DHT22;5678;52.370;9.006;2022-08-21T15:54:37;27.20;97.20
11242;DHT22;5678;52.370;9.006;2022-08-21T15:57:05;27.20;97.60
11242;DHT22;5678;52.370;9.006;2022-08-21T15:59:40;27.00;97.40
11242;DHT22;5678;52.370;9.006;2022-08-21T16:02:14;27.00;97.20
11242;DHT22;5678;52.370;9.006;2022-08-21T16:04:43;26.90;97.80
11242;DHT22;5678;52.370;9.006;2022-08-21T16:07:11;26.80;97.90
11242;DHT22;5678;52.370;9.006;2022-08-21T16:09:39;26.80;98.30
11242;DHT22;5678;52.370;9.006;2022-08-21T16:12:08;26.80;98.20